Petersburg James A Johnson Airport Petersburg US
ICAO: PAPG
IATA:
Category: Medium
Scheduled Services:

Elevation: 111 ft
TransAlt. 18000 ft.

Airport Communications:
AWOS 3:125.8
ANCHORAGE CNTR:118
CTAF:122.5
SITKA RDO:122.35

PAPG Zoom In..

Runways:

(A) RW 05 length 6400 ft width 150 ft
---- / hdg 50

(B) RW 23 length 6400 ft width 150 ft
---- / hdg 230

Location; PAPG
Day. 20 / Time. 02.56 Zulu
* Altimeter: 30.19
* Temperature: 16° c. 60.8°f.
* Wind from: 110° Speed 07 kn.
Dewpoint: 11° c.
Visibility: 10 Statute Miles.
Clouds: Broken 4800 ft.

PAPG 200256Z 11007KT 10SM BKN048 16/11 A3019 RMK AO2 SLP225 T01610106 58006


Wind From 110°
Speed 07 kn.

 
 
jpsmedia.com for Web Design worldairports.se 2018   terms of use